KFET/FET METAR and TAF weather

Enter ICAO airport designator
Station Type Date Time Source
KFET METAR 2021/09/28 03:38 UTC NOAA

KFET 280338Z AUTO 00000KT 10SM CLR 18/16 A2987 RMK AO2


Station Type Date Time Source
KFET Decoded METAR 2021/09/28 03:38 UTC NOAA

Fremont Municipal Airport, NE, United States (KFET) 41-27N 096-31W
Sep 27, 2021 - 11:38 PM EDT / 2021.09.28 0338 UTC
Wind: Calm:0
Visibility: 10 mile(s):0
Sky conditions: clear
Temperature: 64 F (18 C)
Dew Point: 60 F (16 C)
Relative Humidity: 88%
Pressure (altimeter): 29.87 in. Hg (1011 hPa)
ob: KFET 280338Z AUTO 00000KT 10SM CLR 18/16 A2987 RMK AO2
cycle: 3

Station Type Date Time Source
KFET TAF UTC NOAA

Error!

Example: see airport list